• Join FlightAware (Why Join?)
  • Login
  • US Flag 
03:37PM EDT


 

Airport Tracker/Info


-or-


 

Live Flight TrackerFlight Track Log ✈ RPA3247 ✈ 26-Apr-2013 ✈ KDCA - KMSY

Flight Track Log - Related Links

Times and Time Zones

All times are in EDT time to prevent confusion due to time zone crossing. See the RPA3247 flight status page for this flight to view local times or setup timezone preferences in your user account.

Time Position Orientation Groundspeed Altitude Reporting Facility
EDT Latitude Longitude Course Direction KTS MPH feet Rate Location/Type
08:08PM 38.8667 -77.0500 237° Southwest 158 182 900  Level Potomac TRACON
08:09PM 38.9000 -77.0833 322° Northwest 208 239 2,700 2,100 Climbing Potomac TRACON
08:10PM 38.6709 -77.3718 234° Southwest  Level FlightAware Approximate
08:10PM 38.9667 -77.1500 322° Northwest 260 299 5,200  Level Potomac TRACON
08:11PM 38.6104 -77.4855 247° West  Level FlightAware Approximate
08:11PM 38.9500 -77.2333 256° West 270 311 9,100  Level Potomac TRACON
08:12PM 38.5624 -77.6085 237° Southwest  Level FlightAware Approximate
08:12PM 38.9000 -77.3000 226° Southwest 297 342 11,300  Level Potomac TRACON
08:13PM 38.4986 -77.7194 237° Southwest  Level FlightAware Approximate
08:14PM 38.7531 -77.4578 220° Southwest 314 361 15,000  Level Washington Center
08:15PM 38.6786 -77.5408 221° Southwest 339 390 16,100 1,620 Climbing Washington Center
08:16PM 38.6044 -77.6239 221° Southwest 350 403 18,300 2,100 Climbing Washington Center
08:17PM 38.5278 -77.7069 220° Southwest 355 409 20,300 1,860 Climbing Washington Center
08:18PM 38.4633 -77.8111 232° Southwest 360 414 22,100 2,040 Climbing Washington Center
08:19PM 38.4028 -77.9283 237° Southwest 365 420 24,500 2,220 Climbing Washington Center
08:20PM 38.3508 -78.0275 236° Southwest 358 412 26,600 1,200 Climbing Washington Center
08:21PM 38.2967 -78.1314 236° Southwest 358 412 27,000 720 Climbing Washington Center
08:22PM 38.2422 -78.2356 236° Southwest 358 412 28,100 1,020 Climbing Washington Center
08:23PM 38.1833 -78.3469 236° Southwest 368 423 29,100 1,140 Climbing Washington Center
08:24PM 38.1264 -78.4583 237° Southwest 373 429 30,400 1,680 Climbing Washington Center
08:25PM 38.0886 -78.5625 245° Southwest 355 409 32,600 1,500 Climbing Washington Center
08:26PM 38.0589 -78.6589 249° West 341 392 33,500 660 Climbing Washington Center
08:27PM 38.0208 -78.7653 246° West 334 384 34,000 240 Climbing Washington Center
08:28PM 37.9822 -78.8769 246° West 334 384 34,000  Level Washington Center
08:29PM 37.9353 -78.9936 243° Southwest 339 390 34,000  Level Washington Center
08:30PM 37.8842 -79.0992 238° Southwest 345 397 34,000  Level Washington Center
08:31PM 37.8353 -79.2019 239° Southwest 350 403 34,000  Level Washington Center
08:32PM 37.7842 -79.3047 238° Southwest 350 403 34,000  Level Washington Center
08:33PM 37.7394 -79.3997 239° Southwest 350 403 34,000  Level Washington Center
08:34PM 37.6883 -79.5019 238° Southwest 356 410 34,000  Level Washington Center
08:35PM 37.6322 -79.6172 238° Southwest 356 410 34,000  Level Washington Center
08:36PM 37.5875 -79.7064 238° Southwest 356 410 34,000  Level Washington Center
08:38PM 37.4819 -79.9178 238° Southwest 357 411 34,000  Level Atlanta Center
08:39PM 37.4314 -80.0222 239° Southwest 357 411 34,000  Level Atlanta Center
08:40PM 37.3783 -80.1269 238° Southwest 357 411 34,000  Level Atlanta Center
08:41PM 37.3214 -80.2392 237° Southwest 357 411 34,000  Level Atlanta Center
08:42PM 37.2683 -80.3461 238° Southwest 352 405 34,000  Level Atlanta Center
08:43PM 37.2172 -80.4503 238° Southwest 352 405 34,000  Level Atlanta Center
08:44PM 37.1642 -80.5567 238° Southwest 352 405 34,000  Level Atlanta Center
08:45PM 37.1167 -80.6500 237° Southwest 352 405 34,000  Level Atlanta Center
08:46PM 37.0697 -80.7586 242° Southwest 352 405 34,000  Level Atlanta Center
08:47PM 37.0286 -80.8694 245° Southwest 352 405 34,000 -240 Level Atlanta Center
08:48PM 36.9897 -80.9803 246° West 352 405 33,600 -540 Descending Atlanta Center
08:49PM 36.9450 -81.1039 246° West 352 405 33,000 -600 Descending Atlanta Center
08:50PM 36.9058 -81.2169 247° West 357 411 32,500 -540 Descending Atlanta Center
08:51PM 36.8625 -81.3303 244° Southwest 362 417 32,000 -300 Descending Atlanta Center
08:52PM 36.8233 -81.4456 247° West 362 417 32,000  Level Atlanta Center
08:53PM 36.7858 -81.5453 245° Southwest 362 417 32,000  Level Atlanta Center
08:54PM 36.7444 -81.6683 247° West 362 417 32,000  Level Atlanta Center
08:55PM 36.7028 -81.7836 246° West 362 417 32,000  Level Atlanta Center
08:56PM 36.6631 -81.8933 246° West 362 417 32,000  Level Atlanta Center
08:57PM 36.6192 -82.0083 245° Southwest 362 417 32,000  Level Atlanta Center
08:58PM 36.5772 -82.1206 245° Southwest 362 417 32,000  Level Atlanta Center
08:59PM 36.5372 -82.2325 246° West 362 417 32,000  Level Atlanta Center
09:00PM 36.4950 -82.3447 245° Southwest 362 417 32,000  Level Atlanta Center
09:01PM 36.4506 -82.4592 244° Southwest 362 417 32,000  Level Atlanta Center
09:02PM 36.4083 -82.5708 245° Southwest 362 417 32,000  Level Atlanta Center
09:03PM 36.3678 -82.6825 246° West 362 417 32,000  Level Atlanta Center
09:04PM 36.3253 -82.7992 246° West 362 417 32,000  Level Atlanta Center
09:05PM 36.2825 -82.9081 244° Southwest 361 415 32,000  Level Atlanta Center
09:06PM 36.2417 -83.0194 246° West 361 415 32,000  Level Atlanta Center
09:07PM 36.1989 -83.1306 245° Southwest 361 415 32,000  Level Atlanta Center
09:08PM 36.1619 -83.2261 244° Southwest 361 415 32,000  Level Atlanta Center
09:09PM 36.1208 -83.3344 245° Southwest 361 415 32,000  Level Atlanta Center
09:10PM 36.0778 -83.4428 244° Southwest 361 415 32,000  Level Atlanta Center
09:11PM 36.0156 -83.5433 233° Southwest 361 415 32,000  Level Atlanta Center
09:12PM 35.9492 -83.6464 232° Southwest 366 421 32,000  Level Atlanta Center
09:13PM 35.8847 -83.7414 230° Southwest 366 421 32,000  Level Atlanta Center
09:14PM 35.8183 -83.8389 230° Southwest 371 427 32,000  Level Atlanta Center
09:15PM 35.7517 -83.9364 230° Southwest 371 427 32,000  Level Atlanta Center
09:16PM 35.6892 -84.0336 232° Southwest 371 427 32,000  Level Atlanta Center
09:17PM 35.6222 -84.1281 229° Southwest 371 427 32,000  Level Atlanta Center
09:18PM 35.5553 -84.2278 230° Southwest 371 427 32,000  Level Atlanta Center
09:19PM 35.4906 -84.3219 230° Southwest 371 427 32,000  Level Atlanta Center
09:20PM 35.4236 -84.4211 230° Southwest 376 433 32,000  Level Atlanta Center
09:21PM 35.3628 -84.5075 229° Southwest 376 433 32,000  Level Atlanta Center
09:22PM 35.2975 -84.6061 231° Southwest 376 433 32,000  Level Atlanta Center
09:23PM 35.2303 -84.7050 230° Southwest 376 433 32,000  Level Atlanta Center
09:24PM 35.1631 -84.7983 229° Southwest 376 433 32,000  Level Atlanta Center
09:25PM 35.0978 -84.8967 231° Southwest 376 433 32,000  Level Atlanta Center
09:26PM 35.0303 -84.9925 229° Southwest 376 433 32,000  Level Atlanta Center
09:27PM 34.9647 -85.0856 229° Southwest 371 427 32,000  Level Atlanta Center
09:28PM 34.8972 -85.1858 231° Southwest 376 433 32,000  Level Atlanta Center
09:29PM 34.8272 -85.2836 229° Southwest 376 433 32,000  Level Atlanta Center
09:30PM 34.7594 -85.3814 230° Southwest 376 433 32,000  Level Atlanta Center
09:31PM 34.6917 -85.4761 229° Southwest 376 433 32,000  Level Atlanta Center
09:32PM 34.6236 -85.5736 230° Southwest 376 433 32,000  Level Atlanta Center
09:33PM 34.5556 -85.6706 230° Southwest 376 433 32,000  Level Atlanta Center
09:34PM 34.4833 -85.7675 228° Southwest 376 433 32,000  Level Atlanta Center
09:35PM 34.4172 -85.8644 230° Southwest 376 433 32,000  Level Atlanta Center
09:36PM 34.3469 -85.9636 229° Southwest 381 438 32,000  Level Atlanta Center
09:37PM 34.2764 -86.0625 229° Southwest 386 444 32,000  Level Atlanta Center
09:38PM 34.2039 -86.1611 228° Southwest 391 450 32,000  Level Atlanta Center
09:39PM 34.1333 -86.2572 228° Southwest 391 450 32,000  Level Atlanta Center
09:40PM 34.0625 -86.3608 230° Southwest 391 450 32,000  Level Atlanta Center
09:41PM 33.9917 -86.4567 228° Southwest 398 458 32,000  Level Atlanta Center
09:42PM 33.9211 -86.5522 228° Southwest 393 452 32,000  Level Atlanta Center
09:43PM 33.8500 -86.6478 228° Southwest 393 452 32,000  Level Atlanta Center
09:44PM 33.7814 -86.7431 229° Southwest 388 447 32,000  Level Atlanta Center
09:45PM 33.7103 -86.8406 229° Southwest 388 447 32,000  Level Atlanta Center
09:46PM 33.6433 -86.9383 231° Southwest 388 447 32,000  Level Atlanta Center
09:47PM 33.5783 -87.0333 231° Southwest 383 441 32,000  Level Atlanta Center
09:48PM 33.5133 -87.1333 232° Southwest 378 435 32,000  Level Atlanta Center
09:49PM 33.4483 -87.2281 231° Southwest 378 435 32,000  Level Atlanta Center
09:50PM 33.3850 -87.3278 233° Southwest 378 435 32,000  Level Atlanta Center
09:52PM 33.2694 -87.4975 231° Southwest 372 428 32,000  Level Memphis Center
09:53PM 33.2028 -87.5989 232° Southwest 372 428 32,000  Level Memphis Center
09:54PM 33.1400 -87.6928 231° Southwest 379 436 32,000  Level Memphis Center
09:55PM 33.0733 -87.7889 230° Southwest 379 436 32,000  Level Memphis Center
09:56PM 33.0064 -87.8850 230° Southwest 379 436 32,000  Level Memphis Center
09:57PM 32.9517 -87.9731 233° Southwest 374 430 32,000  Level Memphis Center
09:58PM 32.8889 -88.0689 232° Southwest 374 430 32,000  Level Memphis Center
09:59PM 32.8217 -88.1644 230° Southwest 374 430 32,000  Level Memphis Center
10:00PM 32.7564 -88.2600 231° Southwest 374 430 32,000  Level Memphis Center
10:01PM 32.6911 -88.3553 231° Southwest 374 430 32,000  Level Memphis Center
10:02PM 32.6258 -88.4506 231° Southwest 374 430 32,000  Level Memphis Center
10:03PM 32.5625 -88.5431 231° Southwest 374 430 32,000  Level Memphis Center
10:04PM 32.4972 -88.6381 231° Southwest 374 430 32,000  Level Memphis Center
10:05PM 32.4336 -88.7303 231° Southwest 374 430 32,000  Level Memphis Center
10:06PM 32.3639 -88.8225 228° Southwest 374 430 32,000  Level Memphis Center
10:07PM 32.2814 -88.9003 219° Southwest 374 430 32,000  Level Memphis Center
10:08PM 32.2028 -88.9800 221° Southwest 374 430 32,000  Level Memphis Center
10:09PM 32.1203 -89.0572 218° Southwest 380 437 32,000  Level Memphis Center
10:10PM 32.0417 -89.1344 220° Southwest 375 432 32,000  Level Memphis Center
10:11PM 31.9589 -89.2114 218° Southwest 375 432 32,000 -300 Level Memphis Center
10:12PM 31.8181 -89.3464 219° Southwest 372 428 31,300 -960 Descending Houston Center
10:14PM 31.7375 -89.4242 219° Southwest 375 432 29,300 -2,220 Descending Houston Center
10:15PM 31.6364 -89.5194 219° Southwest 385 443 26,900 -2,160 Descending Houston Center
10:16PM 31.5547 -89.5969 219° Southwest 383 441 25,000 -1,440 Descending Houston Center
10:17PM 31.4756 -89.6708 219° Southwest 369 425 24,000 -540 Descending Houston Center
10:18PM 31.3981 -89.7461 220° Southwest 364 419 24,000  Level Houston Center
10:19PM 31.3183 -89.8211 219° Southwest 368 423 24,000  Level Houston Center
10:20PM 31.2372 -89.8986 219° Southwest 375 432 24,000  Level Houston Center
10:21PM 31.1586 -89.9728 219° Southwest 369 425 24,000 -840 Level Houston Center
10:22PM 31.0797 -90.0467 219° Southwest 367 422 22,300 -1,800 Descending Houston Center
10:23PM 31.0028 -90.1189 219° Southwest 360 414 20,400 -2,040 Descending Houston Center
10:24PM 30.9150 -90.2014 219° Southwest 346 398 18,200 -1,980 Descending Houston Center
10:25PM 30.8256 -90.2217 191° South 343 395 16,400 -1,740 Descending Houston Center
10:25PM 30.7669 -90.2194 178° South 340 391 15,400 -1,680 Descending Houston Center
10:26PM 30.7331 -90.2158 175° South 333 383 14,700 -1,740 Descending Houston Center
10:26PM 30.6914 -90.2128 176° South 323 372 14,000 -1,560 Descending Houston Center
10:27PM 30.6467 -90.2094 176° South 317 365 13,100 -1,620 Descending Houston Center
10:27PM 30.6078 -90.2067 176° South 299 344 12,400 -1,680 Descending Houston Center
10:28PM 30.5644 -90.2064 180° South 302 348 11,400 -1,920 Descending Houston Center
10:28PM 30.5242 -90.2078 182° South 299 344 10,500 -1,800 Descending Houston Center
10:29PM 30.4814 -90.2086 181° South 300 345 9,600 -1,920 Descending Houston Center
10:29PM 30.4428 -90.2086 180° South 296 341 8,600 -1,620 Descending Houston Center
10:30PM 30.4031 -90.2100 182° South 289 333 8,000 -1,380 Descending Houston Center
10:30PM 30.3633 -90.2117 182° South 262 302 7,200 -1,620 Descending Houston Center
10:31PM 30.3317 -90.2111 179° South 269 310 6,400 -1,740 Descending Houston Center
10:31PM 30.2925 -90.2122 181° South 246 283 5,500 -1,200 Descending Houston Center
10:32PM 30.2642 -90.2122 180° South 255 293 5,200 -900 Descending Houston Center
10:32PM 30.2297 -90.2125 180° South 220 253 4,600 -1,320 Descending Houston Center
10:33PM 30.1942 -90.2142 182° South 231 266 3,900 -1,140 Descending Houston Center
10:33PM 30.1733 -90.2147 181° South 197 227 3,500 -1,020 Descending Houston Center
10:34PM 30.1428 -90.2144 180° South 208 239 2,900 -1,020 Descending Houston Center
10:34PM 30.1211 -90.2144 180° South 185 213 2,500 -900 Descending Houston Center
10:35PM 30.0922 -90.2156 182° South 194 223 2,000 -780 Descending Houston Center